sensor_id;sensor_type;location;lat;lon;timestamp;temperature;humidity
56729;DHT22;42612;52.232;7.560;2022-09-13T00:02:16;22.40;51.90
56729;DHT22;42612;52.232;7.560;2022-09-13T00:05:02;22.40;52.00
56729;DHT22;42612;52.232;7.560;2022-09-13T00:07:48;22.40;51.90
56729;DHT22;42612;52.232;7.560;2022-09-13T00:10:35;22.40;52.00
56729;DHT22;42612;52.232;7.560;2022-09-13T00:13:23;22.40;52.00
56729;DHT22;42612;52.232;7.560;2022-09-13T00:16:12;22.40;52.00
56729;DHT22;42612;52.232;7.560;2022-09-13T00:18:59;22.40;52.00
56729;DHT22;42612;52.232;7.560;2022-09-13T00:21:45;22.40;52.10
56729;DHT22;42612;52.232;7.560;2022-09-13T00:24:31;22.50;52.10
56729;DHT22;42612;52.232;7.560;2022-09-13T00:27:18;22.50;52.00
56729;DHT22;42612;52.232;7.560;2022-09-13T00:30:05;22.50;51.90
56729;DHT22;42612;52.232;7.560;2022-09-13T00:32:52;22.50;51.90
56729;DHT22;42612;52.232;7.560;2022-09-13T00:35:38;22.50;51.90
56729;DHT22;42612;52.232;7.560;2022-09-13T00:38:24;22.60;52.00
56729;DHT22;42612;52.232;7.560;2022-09-13T00:41:12;22.60;52.00
56729;DHT22;42612;52.232;7.560;2022-09-13T00:44:00;22.50;51.90
56729;DHT22;42612;52.232;7.560;2022-09-13T00:46:47;22.60;51.90
56729;DHT22;42612;52.232;7.560;2022-09-13T00:49:35;22.60;51.90
56729;DHT22;42612;52.232;7.560;2022-09-13T00:52:23;22.60;51.90
56729;DHT22;42612;52.232;7.560;2022-09-13T00:55:12;22.60;51.90
56729;DHT22;42612;52.232;7.560;2022-09-13T00:58:05;22.60;52.00
56729;DHT22;42612;52.232;7.560;2022-09-13T01:01:00;22.60;52.00
56729;DHT22;42612;52.232;7.560;2022-09-13T01:03:48;22.60;52.10
56729;DHT22;42612;52.232;7.560;2022-09-13T01:06:35;22.60;52.10
56729;DHT22;42612;52.232;7.560;2022-09-13T01:09:23;22.60;52.00
56729;DHT22;42612;52.232;7.560;2022-09-13T01:15:05;22.60;52.00
56729;DHT22;42612;52.232;7.560;2022-09-13T01:17:52;22.60;52.00
56729;DHT22;42612;52.232;7.560;2022-09-13T01:20:52;22.60;52.00
56729;DHT22;42612;52.232;7.560;2022-09-13T01:33:15;22.60;52.00
56729;DHT22;42612;52.232;7.560;2022-09-13T01:39:27;22.60;52.70
56729;DHT22;42612;52.232;7.560;2022-09-13T01:42:59;22.60;52.00
56729;DHT22;42612;52.232;7.560;2022-09-13T01:49:05;22.60;52.10
56729;DHT22;42612;52.232;7.560;2022-09-13T01:52:04;22.60;52.10
56729;DHT22;42612;52.232;7.560;2022-09-13T02:03:57;22.50;52.20
56729;DHT22;42612;52.232;7.560;2022-09-13T02:07:03;22.50;52.30
56729;DHT22;42612;52.232;7.560;2022-09-13T02:09:57;22.50;52.30
56729;DHT22;42612;52.232;7.560;2022-09-13T02:12:45;22.50;52.40
56729;DHT22;42612;52.232;7.560;2022-09-13T02:15:35;22.50;52.40
56729;DHT22;42612;52.232;7.560;2022-09-13T02:18:24;22.40;52.40
56729;DHT22;42612;52.232;7.560;2022-09-13T02:21:17;22.50;52.50
56729;DHT22;42612;52.232;7.560;2022-09-13T02:24:08;22.50;52.60
56729;DHT22;42612;52.232;7.560;2022-09-13T02:27:15;22.40;52.50
56729;DHT22;42612;52.232;7.560;2022-09-13T02:30:06;22.40;52.50
56729;DHT22;42612;52.232;7.560;2022-09-13T02:32:55;22.40;52.40
56729;DHT22;42612;52.232;7.560;2022-09-13T02:38:40;22.20;52.40
56729;DHT22;42612;52.232;7.560;2022-09-13T02:44:36;22.10;52.60
56729;DHT22;42612;52.232;7.560;2022-09-13T02:53:52;22.10;52.80
56729;DHT22;42612;52.232;7.560;2022-09-13T02:57:31;22.10;52.90
56729;DHT22;42612;52.232;7.560;2022-09-13T02:59:57;22.00;52.90
56729;DHT22;42612;52.232;7.560;2022-09-13T03:02:44;22.00;52.90
56729;DHT22;42612;52.232;7.560;2022-09-13T03:05:31;22.00;52.80
56729;DHT22;42612;52.232;7.560;2022-09-13T03:08:17;22.00;52.90
56729;DHT22;42612;52.232;7.560;2022-09-13T03:29:19;22.00;53.10
56729;DHT22;42612;52.232;7.560;2022-09-13T03:41:23;22.00;53.10
56729;DHT22;42612;52.232;7.560;2022-09-13T03:44:14;21.90;53.10
56729;DHT22;42612;52.232;7.560;2022-09-13T03:47:01;21.90;53.10
56729;DHT22;42612;52.232;7.560;2022-09-13T03:49:48;21.90;53.10
56729;DHT22;42612;52.232;7.560;2022-09-13T03:52:36;21.90;53.10
56729;DHT22;42612;52.232;7.560;2022-09-13T03:55:22;21.90;53.10
56729;DHT22;42612;52.232;7.560;2022-09-13T03:58:12;21.90;53.10
56729;DHT22;42612;52.232;7.560;2022-09-13T04:01:03;21.90;53.10
56729;DHT22;42612;52.232;7.560;2022-09-13T04:03:49;21.90;53.10
56729;DHT22;42612;52.232;7.560;2022-09-13T04:06:35;21.90;53.10
56729;DHT22;42612;52.232;7.560;2022-09-13T04:09:22;21.90;53.10
56729;DHT22;42612;52.232;7.560;2022-09-13T04:12:08;21.80;53.10
56729;DHT22;42612;52.232;7.560;2022-09-13T04:14:54;22.00;53.20
56729;DHT22;42612;52.232;7.560;2022-09-13T04:17:40;21.90;53.20
56729;DHT22;42612;52.232;7.560;2022-09-13T04:20:26;21.90;53.10
56729;DHT22;42612;52.232;7.560;2022-09-13T04:23:12;21.90;53.10
56729;DHT22;42612;52.232;7.560;2022-09-13T04:26:02;21.90;53.20
56729;DHT22;42612;52.232;7.560;2022-09-13T04:28:48;22.00;53.30
56729;DHT22;42612;52.232;7.560;2022-09-13T04:31:37;22.00;53.40
56729;DHT22;42612;52.232;7.560;2022-09-13T04:34:23;22.00;53.40
56729;DHT22;42612;52.232;7.560;2022-09-13T04:37:09;22.00;53.50
56729;DHT22;42612;52.232;7.560;2022-09-13T04:39:56;22.00;53.50
56729;DHT22;42612;52.232;7.560;2022-09-13T04:42:43;22.00;53.50
56729;DHT22;42612;52.232;7.560;2022-09-13T04:45:29;22.00;53.60
56729;DHT22;42612;52.232;7.560;2022-09-13T04:48:15;22.00;53.60
56729;DHT22;42612;52.232;7.560;2022-09-13T04:51:02;22.00;53.60
56729;DHT22;42612;52.232;7.560;2022-09-13T04:53:52;22.00;53.50
56729;DHT22;42612;52.232;7.560;2022-09-13T04:56:40;21.90;53.50
56729;DHT22;42612;52.232;7.560;2022-09-13T04:59:25;21.90;53.60
56729;DHT22;42612;52.232;7.560;2022-09-13T05:02:12;21.90;53.60
56729;DHT22;42612;52.232;7.560;2022-09-13T05:04:58;22.00;53.80
56729;DHT22;42612;52.232;7.560;2022-09-13T05:07:44;21.90;53.70
56729;DHT22;42612;52.232;7.560;2022-09-13T05:10:30;21.90;53.80
56729;DHT22;42612;52.232;7.560;2022-09-13T05:13:16;21.90;53.80
56729;DHT22;42612;52.232;7.560;2022-09-13T05:16:03;21.90;53.80
56729;DHT22;42612;52.232;7.560;2022-09-13T05:18:50;21.90;53.90
56729;DHT22;42612;52.232;7.560;2022-09-13T05:21:36;21.90;54.60
56729;DHT22;42612;52.232;7.560;2022-09-13T05:24:22;21.90;53.90
56729;DHT22;42612;52.232;7.560;2022-09-13T05:27:09;21.90;53.80
56729;DHT22;42612;52.232;7.560;2022-09-13T05:29:55;21.80;53.90
56729;DHT22;42612;52.232;7.560;2022-09-13T05:32:41;21.90;54.00
56729;DHT22;42612;52.232;7.560;2022-09-13T05:35:27;21.90;54.10
56729;DHT22;42612;52.232;7.560;2022-09-13T05:38:13;21.90;54.10
56729;DHT22;42612;52.232;7.560;2022-09-13T05:41:00;21.90;54.10
56729;DHT22;42612;52.232;7.560;2022-09-13T05:43:46;21.90;54.10
56729;DHT22;42612;52.232;7.560;2022-09-13T05:46:33;21.90;54.10
56729;DHT22;42612;52.232;7.560;2022-09-13T05:49:19;22.00;54.20
56729;DHT22;42612;52.232;7.560;2022-09-13T05:52:04;21.90;54.10
56729;DHT22;42612;52.232;7.560;2022-09-13T05:54:50;21.90;54.20
56729;DHT22;42612;52.232;7.560;2022-09-13T05:57:36;21.90;54.20
56729;DHT22;42612;52.232;7.560;2022-09-13T06:00:22;21.90;54.20
56729;DHT22;42612;52.232;7.560;2022-09-13T06:03:08;21.90;54.20
56729;DHT22;42612;52.232;7.560;2022-09-13T06:05:55;21.90;54.30
56729;DHT22;42612;52.232;7.560;2022-09-13T06:08:41;22.00;54.50
56729;DHT22;42612;52.232;7.560;2022-09-13T06:11:29;22.00;54.50
56729;DHT22;42612;52.232;7.560;2022-09-13T06:14:15;22.00;54.50
56729;DHT22;42612;52.232;7.560;2022-09-13T06:17:01;22.00;54.60
56729;DHT22;42612;52.232;7.560;2022-09-13T06:19:47;22.00;54.40
56729;DHT22;42612;52.232;7.560;2022-09-13T06:22:32;22.00;54.50
56729;DHT22;42612;52.232;7.560;2022-09-13T06:25:19;22.00;54.50
56729;DHT22;42612;52.232;7.560;2022-09-13T06:28:05;22.10;54.50
56729;DHT22;42612;52.232;7.560;2022-09-13T06:30:51;22.10;54.50
56729;DHT22;42612;52.232;7.560;2022-09-13T06:33:39;22.10;54.50
56729;DHT22;42612;52.232;7.560;2022-09-13T06:36:26;22.10;54.50
56729;DHT22;42612;52.232;7.560;2022-09-13T06:39:12;22.10;54.50
56729;DHT22;42612;52.232;7.560;2022-09-13T06:41:58;22.20;54.50
56729;DHT22;42612;52.232;7.560;2022-09-13T06:44:45;22.20;54.50
56729;DHT22;42612;52.232;7.560;2022-09-13T06:47:32;22.30;54.60
56729;DHT22;42612;52.232;7.560;2022-09-13T06:50:18;22.20;54.40
56729;DHT22;42612;52.232;7.560;2022-09-13T06:53:04;22.30;54.50
56729;DHT22;42612;52.232;7.560;2022-09-13T06:55:58;22.30;54.40
56729;DHT22;42612;52.232;7.560;2022-09-13T06:58:54;22.30;54.40
56729;DHT22;42612;52.232;7.560;2022-09-13T07:01:41;22.30;54.40
56729;DHT22;42612;52.232;7.560;2022-09-13T07:04:28;22.30;54.50
56729;DHT22;42612;52.232;7.560;2022-09-13T07:07:16;22.30;54.50
56729;DHT22;42612;52.232;7.560;2022-09-13T07:10:03;22.30;55.20
56729;DHT22;42612;52.232;7.560;2022-09-13T07:12:50;22.40;54.50
56729;DHT22;42612;52.232;7.560;2022-09-13T07:15:36;22.40;54.60
56729;DHT22;42612;52.232;7.560;2022-09-13T07:18:22;22.40;54.50
56729;DHT22;42612;52.232;7.560;2022-09-13T07:21:08;22.40;54.50
56729;DHT22;42612;52.232;7.560;2022-09-13T07:23:55;22.40;54.60
56729;DHT22;42612;52.232;7.560;2022-09-13T07:26:41;22.50;54.60
56729;DHT22;42612;52.232;7.560;2022-09-13T07:29:27;22.50;54.50
56729;DHT22;42612;52.232;7.560;2022-09-13T07:32:13;22.50;54.50
56729;DHT22;42612;52.232;7.560;2022-09-13T07:34:59;22.50;54.60
56729;DHT22;42612;52.232;7.560;2022-09-13T07:37:45;22.60;54.60
56729;DHT22;42612;52.232;7.560;2022-09-13T07:40:31;22.60;54.60
56729;DHT22;42612;52.232;7.560;2022-09-13T07:43:17;22.50;54.50
56729;DHT22;42612;52.232;7.560;2022-09-13T07:46:04;22.60;54.70
56729;DHT22;42612;52.232;7.560;2022-09-13T07:48:52;22.60;54.60
56729;DHT22;42612;52.232;7.560;2022-09-13T07:51:40;22.70;54.70
56729;DHT22;42612;52.232;7.560;2022-09-13T07:54:27;22.70;54.70
56729;DHT22;42612;52.232;7.560;2022-09-13T07:57:13;22.70;54.70
56729;DHT22;42612;52.232;7.560;2022-09-13T07:59:59;22.80;54.80
56729;DHT22;42612;52.232;7.560;2022-09-13T08:02:46;22.80;54.70
56729;DHT22;42612;52.232;7.560;2022-09-13T08:05:37;22.80;54.60
56729;DHT22;42612;52.232;7.560;2022-09-13T08:08:23;22.80;54.70
56729;DHT22;42612;52.232;7.560;2022-09-13T08:11:11;22.90;54.70
56729;DHT22;42612;52.232;7.560;2022-09-13T08:14:04;22.90;54.70
56729;DHT22;42612;52.232;7.560;2022-09-13T08:16:53;22.90;54.60
56729;DHT22;42612;52.232;7.560;2022-09-13T08:19:40;22.90;54.70
56729;DHT22;42612;52.232;7.560;2022-09-13T08:22:26;22.90;54.60
56729;DHT22;42612;52.232;7.560;2022-09-13T08:25:12;22.90;54.50
56729;DHT22;42612;52.232;7.560;2022-09-13T08:27:58;22.90;54.60
56729;DHT22;42612;52.232;7.560;2022-09-13T08:30:45;22.90;54.70
56729;DHT22;42612;52.232;7.560;2022-09-13T08:33:32;22.90;54.70
56729;DHT22;42612;52.232;7.560;2022-09-13T08:36:18;22.90;54.70
56729;DHT22;42612;52.232;7.560;2022-09-13T08:39:05;22.90;54.80
56729;DHT22;42612;52.232;7.560;2022-09-13T08:41:58;22.90;54.80
56729;DHT22;42612;52.232;7.560;2022-09-13T08:44:48;23.00;54.90
56729;DHT22;42612;52.232;7.560;2022-09-13T08:47:40;22.90;55.10
56729;DHT22;42612;52.232;7.560;2022-09-13T08:50:30;23.00;55.20
56729;DHT22;42612;52.232;7.560;2022-09-13T08:53:23;23.00;55.30
56729;DHT22;42612;52.232;7.560;2022-09-13T08:56:12;23.00;55.50
56729;DHT22;42612;52.232;7.560;2022-09-13T08:59:22;23.00;55.60
56729;DHT22;42612;52.232;7.560;2022-09-13T09:05:48;23.10;55.70
56729;DHT22;42612;52.232;7.560;2022-09-13T09:08:39;23.00;55.80
56729;DHT22;42612;52.232;7.560;2022-09-13T09:11:36;23.10;55.70
56729;DHT22;42612;52.232;7.560;2022-09-13T09:14:29;23.10;55.70
56729;DHT22;42612;52.232;7.560;2022-09-13T09:17:18;23.10;55.90
56729;DHT22;42612;52.232;7.560;2022-09-13T09:23:40;23.10;55.90
56729;DHT22;42612;52.232;7.560;2022-09-13T09:26:28;23.10;56.50
56729;DHT22;42612;52.232;7.560;2022-09-13T09:29:21;23.10;56.00
56729;DHT22;42612;52.232;7.560;2022-09-13T09:32:20;23.10;56.00
56729;DHT22;42612;52.232;7.560;2022-09-13T09:35:41;23.10;56.60
56729;DHT22;42612;52.232;7.560;2022-09-13T09:41:32;23.10;56.20
56729;DHT22;42612;52.232;7.560;2022-09-13T09:44:20;23.10;56.10
56729;DHT22;42612;52.232;7.560;2022-09-13T09:47:12;23.10;56.10
56729;DHT22;42612;52.232;7.560;2022-09-13T09:50:02;23.10;56.10
56729;DHT22;42612;52.232;7.560;2022-09-13T09:53:02;23.20;56.20
56729;DHT22;42612;52.232;7.560;2022-09-13T09:56:04;23.20;56.90
56729;DHT22;42612;52.232;7.560;2022-09-13T09:58:57;23.30;56.20
56729;DHT22;42612;52.232;7.560;2022-09-13T10:01:43;23.40;56.50
56729;DHT22;42612;52.232;7.560;2022-09-13T10:04:31;23.40;56.40
56729;DHT22;42612;52.232;7.560;2022-09-13T10:07:23;23.40;56.20
56729;DHT22;42612;52.232;7.560;2022-09-13T10:10:34;23.40;56.20
56729;DHT22;42612;52.232;7.560;2022-09-13T10:13:21;23.40;56.20
56729;DHT22;42612;52.232;7.560;2022-09-13T10:16:24;23.50;56.20
56729;DHT22;42612;52.232;7.560;2022-09-13T10:19:24;23.60;56.30
56729;DHT22;42612;52.232;7.560;2022-09-13T10:22:11;23.60;56.20
56729;DHT22;42612;52.232;7.560;2022-09-13T10:25:12;23.70;56.20
56729;DHT22;42612;52.232;7.560;2022-09-13T10:28:13;23.70;56.10
56729;DHT22;42612;52.232;7.560;2022-09-13T10:31:07;23.80;56.20
56729;DHT22;42612;52.232;7.560;2022-09-13T10:33:59;23.90;56.20
56729;DHT22;42612;52.232;7.560;2022-09-13T10:37:13;23.90;56.40
56729;DHT22;42612;52.232;7.560;2022-09-13T10:40:47;24.10;56.30
56729;DHT22;42612;52.232;7.560;2022-09-13T10:43:23;24.10;56.20
56729;DHT22;42612;52.232;7.560;2022-09-13T10:46:13;24.30;56.20
56729;DHT22;42612;52.232;7.560;2022-09-13T10:49:08;24.40;56.00
56729;DHT22;42612;52.232;7.560;2022-09-13T10:52:28;24.40;55.70
56729;DHT22;42612;52.232;7.560;2022-09-13T11:12:36;24.50;55.30
56729;DHT22;42612;52.232;7.560;2022-09-13T11:28:19;24.60;54.90
56729;DHT22;42612;52.232;7.560;2022-09-13T11:37:51;24.50;54.90
56729;DHT22;42612;52.232;7.560;2022-09-13T11:43:35;24.50;54.90
56729;DHT22;42612;52.232;7.560;2022-09-13T11:46:42;24.50;54.90
56729;DHT22;42612;52.232;7.560;2022-09-13T11:55:29;24.50;54.90
56729;DHT22;42612;52.232;7.560;2022-09-13T11:58:20;24.50;54.90
56729;DHT22;42612;52.232;7.560;2022-09-13T12:01:09;24.60;54.80
56729;DHT22;42612;52.232;7.560;2022-09-13T12:04:02;24.60;54.60
56729;DHT22;42612;52.232;7.560;2022-09-13T12:07:02;24.60;54.60
56729;DHT22;42612;52.232;7.560;2022-09-13T12:09:52;24.60;54.50
56729;DHT22;42612;52.232;7.560;2022-09-13T12:12:42;24.60;54.50
56729;DHT22;42612;52.232;7.560;2022-09-13T12:18:29;24.60;54.50
56729;DHT22;42612;52.232;7.560;2022-09-13T12:21:28;24.60;54.30
56729;DHT22;42612;52.232;7.560;2022-09-13T12:24:27;24.70;54.30
56729;DHT22;42612;52.232;7.560;2022-09-13T12:30:18;24.90;54.30
56729;DHT22;42612;52.232;7.560;2022-09-13T12:33:08;25.00;54.50
56729;DHT22;42612;52.232;7.560;2022-09-13T12:39:37;25.20;54.40
56729;DHT22;42612;52.232;7.560;2022-09-13T13:01:13;26.30;53.60
56729;DHT22;42612;52.232;7.560;2022-09-13T13:04:09;26.40;52.80
56729;DHT22;42612;52.232;7.560;2022-09-13T13:06:59;26.60;52.50
56729;DHT22;42612;52.232;7.560;2022-09-13T13:09:47;26.60;52.00
56729;DHT22;42612;52.232;7.560;2022-09-13T13:12:38;26.70;51.80
56729;DHT22;42612;52.232;7.560;2022-09-13T13:18:27;26.80;51.50
56729;DHT22;42612;52.232;7.560;2022-09-13T13:27:31;27.00;51.70
56729;DHT22;42612;52.232;7.560;2022-09-13T13:31:08;27.10;52.20
56729;DHT22;42612;52.232;7.560;2022-09-13T13:33:46;27.30;51.70
56729;DHT22;42612;52.232;7.560;2022-09-13T13:45:25;27.70;51.10
56729;DHT22;42612;52.232;7.560;2022-09-13T13:48:13;27.80;50.80
56729;DHT22;42612;52.232;7.560;2022-09-13T13:53:57;28.00;50.70
56729;DHT22;42612;52.232;7.560;2022-09-13T13:56:46;28.10;50.50
56729;DHT22;42612;52.232;7.560;2022-09-13T13:59:33;28.20;50.20
56729;DHT22;42612;52.232;7.560;2022-09-13T14:02:20;28.20;50.20
56729;DHT22;42612;52.232;7.560;2022-09-13T14:08:25;28.40;49.50
56729;DHT22;42612;52.232;7.560;2022-09-13T14:11:22;28.50;48.80
56729;DHT22;42612;52.232;7.560;2022-09-13T14:20:58;28.80;48.70
56729;DHT22;42612;52.232;7.560;2022-09-13T14:23:48;28.80;48.70
56729;DHT22;42612;52.232;7.560;2022-09-13T14:26:35;28.90;48.60
56729;DHT22;42612;52.232;7.560;2022-09-13T14:29:21;28.90;48.30
56729;DHT22;42612;52.232;7.560;2022-09-13T14:32:10;28.80;48.50
56729;DHT22;42612;52.232;7.560;2022-09-13T14:34:59;28.80;48.80
56729;DHT22;42612;52.232;7.560;2022-09-13T14:37:50;28.90;48.70
56729;DHT22;42612;52.232;7.560;2022-09-13T14:40:36;28.90;48.60
56729;DHT22;42612;52.232;7.560;2022-09-13T14:43:24;29.00;48.50
56729;DHT22;42612;52.232;7.560;2022-09-13T14:46:27;29.10;48.40
56729;DHT22;42612;52.232;7.560;2022-09-13T14:49:21;29.10;47.90
56729;DHT22;42612;52.232;7.560;2022-09-13T14:52:15;29.10;47.30
56729;DHT22;42612;52.232;7.560;2022-09-13T14:55:07;29.10;48.00
56729;DHT22;42612;52.232;7.560;2022-09-13T14:57:59;29.10;47.40
56729;DHT22;42612;52.232;7.560;2022-09-13T15:00:53;29.20;47.40
56729;DHT22;42612;52.232;7.560;2022-09-13T15:03:45;29.20;47.40
56729;DHT22;42612;52.232;7.560;2022-09-13T15:06:33;29.30;47.60
56729;DHT22;42612;52.232;7.560;2022-09-13T15:09:26;29.40;47.60
56729;DHT22;42612;52.232;7.560;2022-09-13T15:12:25;29.50;47.50
56729;DHT22;42612;52.232;7.560;2022-09-13T15:21:05;29.60;46.70
56729;DHT22;42612;52.232;7.560;2022-09-13T15:24:00;29.60;46.20
56729;DHT22;42612;52.232;7.560;2022-09-13T15:26:46;29.60;45.80
56729;DHT22;42612;52.232;7.560;2022-09-13T15:29:33;29.60;46.00
56729;DHT22;42612;52.232;7.560;2022-09-13T15:32:21;29.60;45.90
56729;DHT22;42612;52.232;7.560;2022-09-13T15:35:28;29.50;45.80
56729;DHT22;42612;52.232;7.560;2022-09-13T15:38:23;29.40;46.00
56729;DHT22;42612;52.232;7.560;2022-09-13T15:41:15;29.30;46.00
56729;DHT22;42612;52.232;7.560;2022-09-13T15:44:04;29.20;46.00
56729;DHT22;42612;52.232;7.560;2022-09-13T15:46:52;29.10;45.80
56729;DHT22;42612;52.232;7.560;2022-09-13T15:49:40;29.10;46.00
56729;DHT22;42612;52.232;7.560;2022-09-13T15:52:32;29.00;45.60
56729;DHT22;42612;52.232;7.560;2022-09-13T15:55:18;29.00;45.90
56729;DHT22;42612;52.232;7.560;2022-09-13T15:58:04;28.90;45.80
56729;DHT22;42612;52.232;7.560;2022-09-13T16:00:50;28.80;46.20
56729;DHT22;42612;52.232;7.560;2022-09-13T16:03:36;28.80;46.00
56729;DHT22;42612;52.232;7.560;2022-09-13T16:06:23;28.60;46.10
56729;DHT22;42612;52.232;7.560;2022-09-13T16:09:16;28.60;46.50
56729;DHT22;42612;52.232;7.560;2022-09-13T16:12:03;28.50;46.40
56729;DHT22;42612;52.232;7.560;2022-09-13T16:14:50;28.40;46.50
56729;DHT22;42612;52.232;7.560;2022-09-13T16:17:36;28.30;46.20
56729;DHT22;42612;52.232;7.560;2022-09-13T16:20:22;28.20;46.20
56729;DHT22;42612;52.232;7.560;2022-09-13T16:23:08;28.10;45.70
56729;DHT22;42612;52.232;7.560;2022-09-13T16:25:54;28.00;45.90
56729;DHT22;42612;52.232;7.560;2022-09-13T16:28:42;27.90;45.90
56729;DHT22;42612;52.232;7.560;2022-09-13T16:31:28;27.80;46.00
56729;DHT22;42612;52.232;7.560;2022-09-13T16:34:14;27.80;46.20
56729;DHT22;42612;52.232;7.560;2022-09-13T16:37:00;27.80;46.20
56729;DHT22;42612;52.232;7.560;2022-09-13T16:39:46;27.80;46.30
56729;DHT22;42612;52.232;7.560;2022-09-13T16:42:33;27.80;46.30
56729;DHT22;42612;52.232;7.560;2022-09-13T16:45:19;27.80;46.30
56729;DHT22;42612;52.232;7.560;2022-09-13T16:48:05;27.80;46.00
56729;DHT22;42612;52.232;7.560;2022-09-13T16:50:52;27.80;46.00
56729;DHT22;42612;52.232;7.560;2022-09-13T16:53:39;27.80;45.90
56729;DHT22;42612;52.232;7.560;2022-09-13T16:56:26;27.70;45.90
56729;DHT22;42612;52.232;7.560;2022-09-13T16:59:12;27.70;45.80
56729;DHT22;42612;52.232;7.560;2022-09-13T17:01:58;27.60;45.90
56729;DHT22;42612;52.232;7.560;2022-09-13T17:04:44;27.60;45.90
56729;DHT22;42612;52.232;7.560;2022-09-13T17:07:30;27.50;45.80
56729;DHT22;42612;52.232;7.560;2022-09-13T17:10:16;27.50;45.70
56729;DHT22;42612;52.232;7.560;2022-09-13T17:13:02;27.40;45.80
56729;DHT22;42612;52.232;7.560;2022-09-13T17:15:50;27.40;45.60
56729;DHT22;42612;52.232;7.560;2022-09-13T17:18:36;27.40;45.70
56729;DHT22;42612;52.232;7.560;2022-09-13T17:21:22;27.30;45.40
56729;DHT22;42612;52.232;7.560;2022-09-13T17:24:08;27.20;45.30
56729;DHT22;42612;52.232;7.560;2022-09-13T17:26:55;27.20;45.20
56729;DHT22;42612;52.232;7.560;2022-09-13T17:29:42;27.00;45.30
56729;DHT22;42612;52.232;7.560;2022-09-13T17:32:28;27.00;45.30
56729;DHT22;42612;52.232;7.560;2022-09-13T17:35:14;26.90;45.30
56729;DHT22;42612;52.232;7.560;2022-09-13T17:38:01;26.90;45.40
56729;DHT22;42612;52.232;7.560;2022-09-13T17:40:56;26.80;45.30
56729;DHT22;42612;52.232;7.560;2022-09-13T17:43:44;26.70;45.30
56729;DHT22;42612;52.232;7.560;2022-09-13T17:46:31;26.70;45.40
56729;DHT22;42612;52.232;7.560;2022-09-13T17:49:17;26.60;45.20
56729;DHT22;42612;52.232;7.560;2022-09-13T17:52:03;26.50;45.20
56729;DHT22;42612;52.232;7.560;2022-09-13T17:54:49;26.50;45.30
56729;DHT22;42612;52.232;7.560;2022-09-13T17:57:35;26.40;45.30
56729;DHT22;42612;52.232;7.560;2022-09-13T18:00:21;26.30;45.20
56729;DHT22;42612;52.232;7.560;2022-09-13T18:03:07;26.20;45.30
56729;DHT22;42612;52.232;7.560;2022-09-13T18:05:53;26.10;45.30
56729;DHT22;42612;52.232;7.560;2022-09-13T18:08:41;26.10;45.40
56729;DHT22;42612;52.232;7.560;2022-09-13T18:11:27;25.90;45.30
56729;DHT22;42612;52.232;7.560;2022-09-13T18:14:14;25.80;45.40
56729;DHT22;42612;52.232;7.560;2022-09-13T18:17:01;25.80;45.50
56729;DHT22;42612;52.232;7.560;2022-09-13T18:19:47;25.70;45.50
56729;DHT22;42612;52.232;7.560;2022-09-13T18:22:33;25.60;45.60
56729;DHT22;42612;52.232;7.560;2022-09-13T18:25:19;25.50;45.50
56729;DHT22;42612;52.232;7.560;2022-09-13T18:28:08;25.40;45.60
56729;DHT22;42612;52.232;7.560;2022-09-13T18:30:54;25.40;45.70
56729;DHT22;42612;52.232;7.560;2022-09-13T18:33:42;25.30;45.60
56729;DHT22;42612;52.232;7.560;2022-09-13T18:36:28;25.20;45.70
56729;DHT22;42612;52.232;7.560;2022-09-13T18:39:16;25.20;45.80
56729;DHT22;42612;52.232;7.560;2022-09-13T18:42:03;25.10;45.90
56729;DHT22;42612;52.232;7.560;2022-09-13T18:44:49;25.10;46.00
56729;DHT22;42612;52.232;7.560;2022-09-13T18:47:36;25.10;46.10
56729;DHT22;42612;52.232;7.560;2022-09-13T18:50:22;25.00;46.10
56729;DHT22;42612;52.232;7.560;2022-09-13T18:53:08;25.00;46.00
56729;DHT22;42612;52.232;7.560;2022-09-13T18:55:54;24.90;46.00
56729;DHT22;42612;52.232;7.560;2022-09-13T18:58:40;24.90;46.10
56729;DHT22;42612;52.232;7.560;2022-09-13T19:01:28;24.90;46.20
56729;DHT22;42612;52.232;7.560;2022-09-13T19:04:16;24.80;46.20
56729;DHT22;42612;52.232;7.560;2022-09-13T19:07:03;24.70;46.20
56729;DHT22;42612;52.232;7.560;2022-09-13T19:09:51;24.60;46.20
56729;DHT22;42612;52.232;7.560;2022-09-13T19:12:37;24.60;46.30
56729;DHT22;42612;52.232;7.560;2022-09-13T19:15:23;24.50;46.30
56729;DHT22;42612;52.232;7.560;2022-09-13T19:18:09;24.40;47.10
56729;DHT22;42612;52.232;7.560;2022-09-13T19:21:11;24.30;46.50
56729;DHT22;42612;52.232;7.560;2022-09-13T19:23:59;24.20;46.60
56729;DHT22;42612;52.232;7.560;2022-09-13T19:26:46;24.10;46.70
56729;DHT22;42612;52.232;7.560;2022-09-13T19:29:33;24.00;46.80
56729;DHT22;42612;52.232;7.560;2022-09-13T19:32:19;24.00;46.90
56729;DHT22;42612;52.232;7.560;2022-09-13T19:35:05;23.90;47.00
56729;DHT22;42612;52.232;7.560;2022-09-13T19:37:51;23.90;47.10
56729;DHT22;42612;52.232;7.560;2022-09-13T19:40:38;23.80;47.00
56729;DHT22;42612;52.232;7.560;2022-09-13T19:43:24;23.80;47.20
56729;DHT22;42612;52.232;7.560;2022-09-13T19:46:14;23.70;47.00
56729;DHT22;42612;52.232;7.560;2022-09-13T19:49:01;23.70;47.20
56729;DHT22;42612;52.232;7.560;2022-09-13T19:51:48;23.70;47.20
56729;DHT22;42612;52.232;7.560;2022-09-13T19:54:34;23.70;47.20
56729;DHT22;42612;52.232;7.560;2022-09-13T19:57:20;23.70;47.20
56729;DHT22;42612;52.232;7.560;2022-09-13T20:00:06;23.60;47.10
56729;DHT22;42612;52.232;7.560;2022-09-13T20:02:53;23.50;47.10
56729;DHT22;42612;52.232;7.560;2022-09-13T20:05:39;23.50;47.20
56729;DHT22;42612;52.232;7.560;2022-09-13T20:08:25;23.50;47.20
56729;DHT22;42612;52.232;7.560;2022-09-13T20:11:12;23.50;47.20
56729;DHT22;42612;52.232;7.560;2022-09-13T20:14:00;23.40;47.20
56729;DHT22;42612;52.232;7.560;2022-09-13T20:16:48;23.40;47.20
56729;DHT22;42612;52.232;7.560;2022-09-13T20:19:34;23.40;47.20
56729;DHT22;42612;52.232;7.560;2022-09-13T20:22:20;23.30;47.10
56729;DHT22;42612;52.232;7.560;2022-09-13T20:25:06;23.30;47.10
56729;DHT22;42612;52.232;7.560;2022-09-13T20:27:53;23.20;47.10
56729;DHT22;42612;52.232;7.560;2022-09-13T20:30:39;23.20;47.20
56729;DHT22;42612;52.232;7.560;2022-09-13T20:33:26;23.10;47.20
56729;DHT22;42612;52.232;7.560;2022-09-13T20:36:12;23.10;47.20
56729;DHT22;42612;52.232;7.560;2022-09-13T20:38:59;23.10;47.30
56729;DHT22;42612;52.232;7.560;2022-09-13T20:41:45;23.10;47.30
56729;DHT22;42612;52.232;7.560;2022-09-13T20:44:33;23.00;47.20
56729;DHT22;42612;52.232;7.560;2022-09-13T20:47:19;23.10;47.30
56729;DHT22;42612;52.232;7.560;2022-09-13T20:50:05;23.00;47.30
56729;DHT22;42612;52.232;7.560;2022-09-13T20:52:51;23.00;47.20
56729;DHT22;42612;52.232;7.560;2022-09-13T20:55:37;23.00;47.30
56729;DHT22;42612;52.232;7.560;2022-09-13T20:58:25;22.90;47.30